Time,TemperatureF,DewpointF,PressureIn,WindDirection,WindDirectionDegrees,WindSpeedMPH,WindSpeedGustMPH,Humidity,HourlyPrecipIn,Conditions,Clouds,dailyrainin,SoftwareType,DateUTC
2013-07-10 00:02:00,81.0,77.1,29.08,SSE,161,4.5,5.8,88,0.00,,FEW,0.00,WeatherDisplay:10.37,2013-07-10 05:02:00,
2013-07-10 00:07:00,81.0,77.1,29.08,SSE,156,6.9,9.2,88,0.00,,FEW,0.00,WeatherDisplay:10.37,2013-07-10 05:07:00,
2013-07-10 00:12:00,81.0,77.1,29.08,SE,142,4.9,6.9,88,0.00,,FEW,0.00,WeatherDisplay:10.37,2013-07-10 05:12:00,
2013-07-10 00:17:00,80.9,77.0,29.07,SSE,157,5.8,8.1,88,0.00,,FEW,0.00,WeatherDisplay:10.37,2013-07-10 05:17:00,
2013-07-10 00:22:00,80.9,77.0,29.07,SE,135,3.5,5.2,88,0.00,,FEW,0.00,WeatherDisplay:10.37,2013-07-10 05:22:00,
2013-07-10 00:27:00,80.8,76.9,29.07,SSE,167,6.4,10.4,88,0.00,,FEW,0.00,WeatherDisplay:10.37,2013-07-10 05:27:00,
2013-07-10 00:32:00,80.8,76.6,29.07,SE,144,1.0,2.3,87,0.00,,FEW,0.00,WeatherDisplay:10.37,2013-07-10 05:32:00,
2013-07-10 00:37:00,80.8,76.6,29.08,SSE,167,6.0,10.4,87,0.00,,FEW,0.00,WeatherDisplay:10.37,2013-07-10 05:37:00,
2013-07-10 00:42:00,80.8,76.6,29.08,ESE,102,3.5,5.8,87,0.00,,FEW,0.00,WeatherDisplay:10.37,2013-07-10 05:42:00,
2013-07-10 00:47:00,80.8,76.6,29.08,SE,135,0.8,3.5,87,0.00,,FEW,0.00,WeatherDisplay:10.37,2013-07-10 05:47:00,
2013-07-10 00:52:00,80.8,76.6,29.08,SE,131,3.9,5.8,87,0.00,,FEW,0.00,WeatherDisplay:10.37,2013-07-10 05:52:00,
2013-07-10 00:57:00,80.8,76.6,29.07,SE,137,5.1,9.2,87,0.00,,FEW,0.00,WeatherDisplay:10.37,2013-07-10 05:57:00,
2013-07-10 01:02:00,80.7,76.5,29.07,South,189,6.5,8.1,87,0.00,,FEW,0.00,WeatherDisplay:10.37,2013-07-10 06:02:00,
2013-07-10 01:07:00,80.7,76.5,29.07,WSW,239,6.3,10.4,87,0.00,,FEW,0.00,WeatherDisplay:10.37,2013-07-10 06:07:00,
2013-07-10 01:12:00,80.7,76.8,29.07,SE,135,0.8,2.1,88,0.00,,FEW,0.00,WeatherDisplay:10.37,2013-07-10 06:12:00,
2013-07-10 01:17:00,80.7,76.5,29.07,SSE,162,4.3,9.2,87,0.00,,FEW,0.00,WeatherDisplay:10.37,2013-07-10 06:17:00,
2013-07-10 01:22:00,80.7,76.5,29.07,SSE,163,3.3,6.9,87,0.00,,FEW,0.00,WeatherDisplay:10.37,2013-07-10 06:22:00,
2013-07-10 01:27:00,80.7,76.8,29.07,SE,139,1.3,4.6,88,0.00,,FEW,0.00,WeatherDisplay:10.37,2013-07-10 06:27:00,
2013-07-10 01:32:00,80.6,76.7,29.07,SE,132,3.3,5.8,88,0.00,,FEW,0.00,WeatherDisplay:10.37,2013-07-10 06:32:00,
2013-07-10 01:37:00,80.5,76.6,29.07,SSE,163,4.3,5.8,88,0.00,,FEW,0.00,WeatherDisplay:10.37,2013-07-10 06:37:00,
2013-07-10 01:42:00,80.6,76.7,29.07,SE,130,5.4,5.8,88,0.00,,FEW,0.00,WeatherDisplay:10.37,2013-07-10 06:42:00,
2013-07-10 01:47:00,80.6,76.7,29.07,SSE,168,1.9,4.6,88,0.00,,FEW,0.00,WeatherDisplay:10.37,2013-07-10 06:47:00,
2013-07-10 01:52:00,80.6,76.7,29.06,SSE,168,4.5,5.8,88,0.00,,FEW,0.00,WeatherDisplay:10.37,2013-07-10 06:52:00,
2013-07-10 01:57:00,80.6,76.7,29.06,SE,144,6.1,8.1,88,0.00,,FEW,0.00,WeatherDisplay:10.37,2013-07-10 06:57:00,
2013-07-10 02:02:00,80.5,76.6,29.06,SE,143,3.5,6.9,88,0.00,,FEW,0.00,WeatherDisplay:10.37,2013-07-10 07:02:00,
2013-07-10 02:07:00,80.5,76.6,29.07,SSW,205,4.2,5.8,88,0.00,,FEW,0.00,WeatherDisplay:10.37,2013-07-10 07:07:00,
2013-07-10 02:12:00,80.5,76.6,29.07,SSE,159,3.8,5.8,88,0.00,,FEW,0.00,WeatherDisplay:10.37,2013-07-10 07:12:00,
2013-07-10 02:17:00,80.5,76.6,29.07,SE,135,3.3,5.8,88,0.00,,FEW,0.00,WeatherDisplay:10.37,2013-07-10 07:17:00,
2013-07-10 02:22:00,80.5,76.6,29.07,South,169,2.9,5.8,88,0.00,,FEW,0.00,WeatherDisplay:10.37,2013-07-10 07:22:00,
2013-07-10 02:27:00,80.4,76.5,29.07,SE,141,1.1,2.3,88,0.00,,FEW,0.00,WeatherDisplay:10.37,2013-07-10 07:27:00,
2013-07-10 02:32:00,80.4,76.9,29.07,SSE,147,4.0,5.2,89,0.00,,FEW,0.00,WeatherDisplay:10.37,2013-07-10 07:32:00,
2013-07-10 02:37:00,80.4,76.5,29.07,SE,143,4.2,5.8,88,0.00,,FEW,0.00,WeatherDisplay:10.37,2013-07-10 07:37:00,
2013-07-10 02:42:00,80.3,76.4,29.07,SSE,148,2.7,5.8,88,0.00,,FEW,0.00,WeatherDisplay:10.37,2013-07-10 07:42:00,
2013-07-10 02:47:00,80.4,76.5,29.07,SSE,161,4.5,5.8,88,0.00,,FEW,0.00,WeatherDisplay:10.37,2013-07-10 07:47:00,
2013-07-10 02:52:00,80.4,76.5,29.06,SE,125,3.9,5.8,88,0.00,,FEW,0.00,WeatherDisplay:10.37,2013-07-10 07:52:00,
2013-07-10 02:57:00,80.4,76.5,29.06,SE,127,1.7,3.5,88,0.00,,FEW,0.00,WeatherDisplay:10.37,2013-07-10 07:57:00,
2013-07-10 03:02:00,80.4,76.5,29.06,SSE,158,2.9,6.3,88,0.00,,FEW,0.00,WeatherDisplay:10.37,2013-07-10 08:02:00,
2013-07-10 03:07:00,80.3,76.4,29.06,ESE,111,2.4,3.5,88,0.00,,FEW,0.00,WeatherDisplay:10.37,2013-07-10 08:07:00,
2013-07-10 03:12:00,80.3,76.4,29.06,South,169,5.3,8.1,88,0.00,,FEW,0.00,WeatherDisplay:10.37,2013-07-10 08:12:00,
2013-07-10 03:17:00,80.3,76.4,29.06,ESE,120,2.8,3.5,88,0.00,,FEW,0.00,WeatherDisplay:10.37,2013-07-10 08:17:00,
2013-07-10 03:22:00,80.2,76.3,29.06,SW,217,3.8,5.8,88,0.00,,FEW,0.00,WeatherDisplay:10.37,2013-07-10 08:22:00,
2013-07-10 03:27:00,80.2,76.3,29.06,SSE,149,1.7,5.2,88,0.00,,FEW,0.00,WeatherDisplay:10.37,2013-07-10 08:27:00,
2013-07-10 03:32:00,80.3,76.4,29.06,South,174,2.4,3.5,88,0.00,,FEW,0.00,WeatherDisplay:10.37,2013-07-10 08:32:00,
2013-07-10 03:37:00,80.3,76.8,29.06,South,187,2.6,4.6,89,0.00,,FEW,0.00,WeatherDisplay:10.37,2013-07-10 08:37:00,
2013-07-10 03:42:00,80.2,76.7,29.05,SSE,158,3.2,8.1,89,0.00,,FEW,0.00,WeatherDisplay:10.37,2013-07-10 08:42:00,
2013-07-10 03:47:00,80.2,76.7,29.05,SE,134,3.8,8.1,89,0.00,,FEW,0.00,WeatherDisplay:10.37,2013-07-10 08:47:00,
2013-07-10 03:52:00,80.2,76.3,29.05,South,177,2.8,5.8,88,0.00,,FEW,0.00,WeatherDisplay:10.37,2013-07-10 08:52:00,
2013-07-10 03:57:00,80.2,76.7,29.05,SE,144,2.6,4.6,89,0.00,,FEW,0.00,WeatherDisplay:10.37,2013-07-10 08:57:00,
2013-07-10 04:02:00,80.2,76.7,29.05,South,173,2.1,3.5,89,0.00,,FEW,0.00,WeatherDisplay:10.37,2013-07-10 09:02:00,
2013-07-10 04:07:00,80.2,76.7,29.05,SE,133,1.8,3.5,89,0.00,,FEW,0.00,WeatherDisplay:10.37,2013-07-10 09:07:00,
2013-07-10 04:12:00,80.1,76.6,29.05,SE,135,0.8,2.1,89,0.00,,FEW,0.00,WeatherDisplay:10.37,2013-07-10 09:12:00,
2013-07-10 04:17:00,80.1,76.6,29.05,SE,138,3.7,5.8,89,0.00,,FEW,0.00,WeatherDisplay:10.37,2013-07-10 09:17:00,
2013-07-10 04:22:00,80.1,76.6,29.05,SSE,149,3.8,5.8,89,0.00,,FEW,0.00,WeatherDisplay:10.37,2013-07-10 09:22:00,
2013-07-10 04:27:00,80.2,76.7,29.05,SE,134,3.2,5.2,89,0.00,,FEW,0.00,WeatherDisplay:10.37,2013-07-10 09:27:00,
2013-07-10 04:32:00,80.2,76.7,29.05,South,183,3.8,6.3,89,0.00,,FEW,0.00,WeatherDisplay:10.37,2013-07-10 09:32:00,
2013-07-10 04:37:00,80.2,76.7,29.05,SE,141,1.5,4.6,89,0.00,,FEW,0.00,WeatherDisplay:10.37,2013-07-10 09:37:00,
2013-07-10 04:42:00,80.1,76.6,29.05,ESE,107,3.1,4.2,89,0.00,,FEW,0.00,WeatherDisplay:10.37,2013-07-10 09:42:00,
2013-07-10 04:47:00,80.1,76.6,29.05,SSE,148,2.4,5.8,89,0.00,,FEW,0.00,WeatherDisplay:10.37,2013-07-10 09:47:00,
2013-07-10 04:52:00,80.1,76.6,29.05,SE,125,4.1,7.4,89,0.00,,FEW,0.00,WeatherDisplay:10.37,2013-07-10 09:52:00,
2013-07-10 04:57:00,80.1,76.2,29.05,SSE,163,3.0,5.8,88,0.00,,FEW,0.00,WeatherDisplay:10.37,2013-07-10 09:57:00,
2013-07-10 05:02:00,80.1,76.2,29.05,SSE,161,2.1,6.9,88,0.00,,FEW,0.00,WeatherDisplay:10.37,2013-07-10 10:02:00,
2013-07-10 05:07:00,80.2,76.3,29.05,SSW,211,1.9,5.8,88,0.00,,FEW,0.00,WeatherDisplay:10.37,2013-07-10 10:07:00,
2013-07-10 05:12:00,80.2,76.7,29.05,ESE,122,1.8,4.6,89,0.00,,FEW,0.00,WeatherDisplay:10.37,2013-07-10 10:12:00,
2013-07-10 05:17:00,80.1,76.6,29.06,SSE,147,0.0,0.0,89,0.00,,FEW,0.00,WeatherDisplay:10.37,2013-07-10 10:17:00,
2013-07-10 05:22:00,80.1,76.6,29.06,SW,231,0.0,1.2,89,0.00,,FEW,0.00,WeatherDisplay:10.37,2013-07-10 10:22:00,
2013-07-10 05:27:00,80.0,76.5,29.05,SSE,164,0.7,3.5,89,0.00,,FEW,0.00,WeatherDisplay:10.37,2013-07-10 10:27:00,
2013-07-10 05:32:00,79.9,76.4,29.05,South,169,0.0,0.0,89,0.00,,FEW,0.00,WeatherDisplay:10.37,2013-07-10 10:32:00,
2013-07-10 05:37:00,79.8,76.3,29.06,SSE,147,0.2,2.3,89,0.00,,FEW,0.00,WeatherDisplay:10.37,2013-07-10 10:37:00,
2013-07-10 05:42:00,79.8,76.3,29.06,SW,225,0.1,1.2,89,0.00,,FEW,0.00,WeatherDisplay:10.37,2013-07-10 10:42:00,
2013-07-10 05:47:00,79.8,76.3,29.05,SSE,148,0.3,2.3,89,0.00,,FEW,0.00,WeatherDisplay:10.37,2013-07-10 10:47:00,
2013-07-10 05:52:00,79.8,76.6,29.05,SSE,165,0.5,1.2,90,0.00,,FEW,0.00,WeatherDisplay:10.37,2013-07-10 10:52:00,
2013-07-10 05:57:00,79.8,76.6,29.05,SSE,156,0.0,0.0,90,0.00,,FEW,0.00,WeatherDisplay:10.37,2013-07-10 10:57:00,
2013-07-10 06:02:00,79.9,76.7,29.06,WSW,242,0.3,1.2,90,0.00,,FEW,0.00,WeatherDisplay:10.37,2013-07-10 11:02:00,
2013-07-10 06:07:00,79.9,76.7,29.06,SSW,196,0.0,0.0,90,0.00,,FEW,0.00,WeatherDisplay:10.37,2013-07-10 11:07:00,
2013-07-10 06:12:00,79.8,76.6,29.06,SW,215,0.0,0.0,90,0.00,,FEW,0.00,WeatherDisplay:10.37,2013-07-10 11:12:00,
2013-07-10 06:17:00,79.7,76.5,29.06,SW,216,0.0,0.0,90,0.00,,FEW,0.00,WeatherDisplay:10.37,2013-07-10 11:17:00,
2013-07-10 06:22:00,79.5,76.3,29.06,SW,218,0.0,0.0,90,0.00,,FEW,0.00,WeatherDisplay:10.37,2013-07-10 11:22:00,
2013-07-10 06:27:00,79.4,76.2,29.06,SW,218,0.0,0.0,90,0.00,,FEW,0.00,WeatherDisplay:10.37,2013-07-10 11:27:00,
2013-07-10 06:32:00,79.2,76.0,29.06,SW,218,0.0,0.0,90,0.00,,FEW,0.00,WeatherDisplay:10.37,2013-07-10 11:32:00,
2013-07-10 06:37:00,79.1,75.9,29.06,SSW,194,0.0,0.0,90,0.00,,FEW,0.00,WeatherDisplay:10.37,2013-07-10 11:37:00,
2013-07-10 06:42:00,78.9,76.0,29.06,SSW,194,0.0,0.0,91,0.00,,FEW,0.00,WeatherDisplay:10.37,2013-07-10 11:42:00,
2013-07-10 06:47:00,78.8,75.9,29.06,SSW,194,0.0,0.0,91,0.00,,FEW,0.00,WeatherDisplay:10.37,2013-07-10 11:47:00,
2013-07-10 06:52:00,78.7,75.8,29.06,SSW,194,0.0,0.0,91,0.00,,FEW,0.00,WeatherDisplay:10.37,2013-07-10 11:52:00,
2013-07-10 06:57:00,78.6,75.8,29.06,SSW,194,0.0,0.0,91,0.00,,FEW,0.00,WeatherDisplay:10.37,2013-07-10 11:57:00,
2013-07-10 07:02:00,78.5,75.7,29.06,SSW,194,0.0,0.0,91,0.00,,FEW,0.00,WeatherDisplay:10.37,2013-07-10 12:02:00,
2013-07-10 07:07:00,78.4,75.9,29.07,SSW,194,0.0,0.0,92,0.00,,FEW,0.00,WeatherDisplay:10.37,2013-07-10 12:07:00,
2013-07-10 07:12:00,78.5,76.0,29.07,SSW,194,0.0,0.0,92,0.00,,FEW,0.00,WeatherDisplay:10.37,2013-07-10 12:12:00,
2013-07-10 07:17:00,78.7,76.2,29.07,SSW,194,0.0,0.0,92,0.00,,FEW,0.00,WeatherDisplay:10.37,2013-07-10 12:17:00,
2013-07-10 07:22:00,78.9,76.4,29.07,SSW,194,0.0,0.0,92,0.00,,FEW,0.00,WeatherDisplay:10.37,2013-07-10 12:22:00,
2013-07-10 07:27:00,79.2,76.7,29.07,SE,139,0.0,0.0,92,0.00,,FEW,0.00,WeatherDisplay:10.37,2013-07-10 12:27:00,
2013-07-10 07:32:00,79.6,76.7,29.07,South,178,0.4,3.5,91,0.00,,FEW,0.00,WeatherDisplay:10.37,2013-07-10 12:32:00,
2013-07-10 07:37:00,79.9,77.0,29.07,SSW,210,0.0,1.2,91,0.00,,FEW,0.00,WeatherDisplay:10.37,2013-07-10 12:37:00,
2013-07-10 07:42:00,80.3,77.1,29.07,SE,139,0.7,4.6,90,0.00,,FEW,0.00,WeatherDisplay:10.37,2013-07-10 12:42:00,
2013-07-10 07:47:00,80.8,77.3,29.07,SSE,159,0.0,0.0,89,0.00,,FEW,0.00,WeatherDisplay:10.37,2013-07-10 12:47:00,
2013-07-10 07:52:00,81.1,77.2,29.07,South,172,2.1,4.6,88,0.00,,FEW,0.00,WeatherDisplay:10.37,2013-07-10 12:52:00,
2013-07-10 07:57:00,81.2,77.0,29.07,South,177,3.8,4.6,87,0.00,,FEW,0.00,WeatherDisplay:10.37,2013-07-10 12:57:00,
2013-07-10 08:02:00,81.5,76.9,29.07,SE,140,3.4,4.6,86,0.00,,FEW,0.00,WeatherDisplay:10.37,2013-07-10 13:02:00,
2013-07-10 08:07:00,81.8,76.8,29.07,South,176,3.0,4.6,85,0.00,,FEW,0.00,WeatherDisplay:10.37,2013-07-10 13:07:00,
2013-07-10 08:12:00,82.2,77.2,29.07,SW,220,0.0,0.0,85,0.00,,FEW,0.00,WeatherDisplay:10.37,2013-07-10 13:12:00,
2013-07-10 08:17:00,82.7,77.4,29.08,SE,125,0.7,3.5,84,0.00,,FEW,0.00,WeatherDisplay:10.37,2013-07-10 13:17:00,
2013-07-10 08:22:00,82.8,77.5,29.08,SE,128,0.0,0.0,84,0.00,,FEW,0.00,WeatherDisplay:10.37,2013-07-10 13:22:00,
2013-07-10 08:27:00,83.0,76.9,29.08,South,185,2.8,4.6,82,0.00,,FEW,0.00,WeatherDisplay:10.37,2013-07-10 13:27:00,
2013-07-10 08:32:00,83.1,77.0,29.08,SSW,205,2.5,5.8,82,0.00,,FEW,0.00,WeatherDisplay:10.37,2013-07-10 13:32:00,
2013-07-10 08:37:00,83.5,77.4,29.08,SW,234,1.6,6.3,82,0.00,,FEW,0.00,WeatherDisplay:10.37,2013-07-10 13:37:00,
2013-07-10 08:42:00,83.6,77.1,29.08,ESE,122,1.0,5.8,81,0.00,,FEW,0.00,WeatherDisplay:10.37,2013-07-10 13:42:00,
2013-07-10 08:47:00,84.0,77.2,29.08,SSE,147,3.5,5.8,80,0.00,,FEW,0.00,WeatherDisplay:10.37,2013-07-10 13:47:00,
2013-07-10 08:52:00,84.2,77.7,29.08,SSE,168,2.0,5.2,81,0.00,,FEW,0.00,WeatherDisplay:10.37,2013-07-10 13:52:00,
2013-07-10 08:57:00,84.1,76.9,29.08,SE,145,3.3,4.6,79,0.00,,FEW,0.00,WeatherDisplay:10.37,2013-07-10 13:57:00,
2013-07-10 09:02:00,84.1,76.9,29.08,SE,140,2.2,4.6,79,0.00,,FEW,0.00,WeatherDisplay:10.37,2013-07-10 14:02:00,
2013-07-10 09:07:00,83.8,77.0,29.08,South,187,0.1,2.3,80,0.00,,FEW,0.00,WeatherDisplay:10.37,2013-07-10 14:07:00,
2013-07-10 09:12:00,83.8,77.0,29.08,SSW,192,0.0,0.0,80,0.00,,FEW,0.00,WeatherDisplay:10.37,2013-07-10 14:12:00,
2013-07-10 09:17:00,84.2,77.4,29.08,South,180,2.7,3.5,80,0.00,,FEW,0.00,WeatherDisplay:10.37,2013-07-10 14:17:00,
2013-07-10 09:22:00,84.4,77.2,29.08,SW,225,4.7,5.8,79,0.00,,FEW,0.00,WeatherDisplay:10.37,2013-07-10 14:22:00,
2013-07-10 09:27:00,84.9,77.3,29.08,SSW,210,0.9,2.3,78,0.00,,FEW,0.00,WeatherDisplay:10.37,2013-07-10 14:27:00,
2013-07-10 09:32:00,85.3,77.3,29.09,SE,130,2.5,4.6,77,0.00,,FEW,0.00,WeatherDisplay:10.37,2013-07-10 14:32:00,
2013-07-10 09:37:00,85.2,77.2,29.08,SE,135,4.1,5.8,77,0.00,,FEW,0.00,WeatherDisplay:10.37,2013-07-10 14:37:00,
2013-07-10 09:42:00,85.4,77.4,29.08,ESE,109,4.0,5.8,77,0.00,,FEW,0.00,WeatherDisplay:10.37,2013-07-10 14:42:00,
2013-07-10 09:47:00,85.5,77.1,29.08,SSE,152,5.2,5.8,76,0.00,,FEW,0.00,WeatherDisplay:10.37,2013-07-10 14:47:00,
2013-07-10 09:52:00,85.6,77.6,29.08,South,173,0.0,0.0,77,0.00,,FEW,0.00,WeatherDisplay:10.37,2013-07-10 14:52:00,
2013-07-10 09:57:00,86.4,77.1,29.08,SSE,161,4.9,8.1,74,0.00,,FEW,0.00,WeatherDisplay:10.37,2013-07-10 14:57:00,
2013-07-10 10:02:00,86.1,77.2,29.08,SSE,147,2.2,4.6,75,0.00,,FEW,0.00,WeatherDisplay:10.37,2013-07-10 15:02:00,
2013-07-10 10:07:00,86.3,77.4,29.08,SE,144,2.8,4.6,75,0.00,,FEW,0.00,WeatherDisplay:10.37,2013-07-10 15:07:00,
2013-07-10 10:12:00,86.8,77.5,29.08,SE,139,1.4,5.2,74,0.00,,FEW,0.00,WeatherDisplay:10.37,2013-07-10 15:12:00,
2013-07-10 10:17:00,86.5,76.8,29.09,South,180,3.7,5.8,73,0.00,,FEW,0.00,WeatherDisplay:10.37,2013-07-10 15:17:00,
2013-07-10 10:22:00,86.7,76.6,29.09,South,190,2.5,4.6,72,0.00,,FEW,0.00,WeatherDisplay:10.37,2013-07-10 15:22:00,
2013-07-10 10:27:00,87.3,77.6,29.09,South,176,1.3,5.2,73,0.00,,FEW,0.00,WeatherDisplay:10.37,2013-07-10 15:27:00,
2013-07-10 10:32:00,87.4,76.8,29.09,ESE,107,4.2,5.8,71,0.00,,FEW,0.00,WeatherDisplay:10.37,2013-07-10 15:32:00,
2013-07-10 10:37:00,87.2,76.6,29.09,ESE,116,3.6,9.2,71,0.00,,FEW,0.00,WeatherDisplay:10.37,2013-07-10 15:37:00,
2013-07-10 10:42:00,86.9,76.4,29.09,SE,133,3.7,5.8,71,0.00,,FEW,0.00,WeatherDisplay:10.37,2013-07-10 15:42:00,
2013-07-10 10:47:00,87.3,76.7,29.09,WSW,241,0.4,4.2,71,0.00,,FEW,0.00,WeatherDisplay:10.37,2013-07-10 15:47:00,
2013-07-10 10:52:00,87.4,76.8,29.09,South,182,5.3,6.9,71,0.00,,FEW,0.00,WeatherDisplay:10.37,2013-07-10 15:52:00,
2013-07-10 10:57:00,87.5,76.9,29.09,SSE,165,3.7,5.8,71,0.00,,FEW,0.00,WeatherDisplay:10.37,2013-07-10 15:57:00,
2013-07-10 11:02:00,87.5,76.5,29.09,SSW,192,4.2,5.8,70,0.00,,FEW,0.00,WeatherDisplay:10.37,2013-07-10 16:02:00,
2013-07-10 11:07:00,87.3,76.3,29.09,SE,135,6.2,7.4,70,0.00,,FEW,0.00,WeatherDisplay:10.37,2013-07-10 16:07:00,
2013-07-10 11:12:00,86.5,76.8,29.09,ESE,119,2.3,6.9,73,0.00,,FEW,0.00,WeatherDisplay:10.37,2013-07-10 16:12:00,
2013-07-10 11:17:00,86.6,77.3,29.09,SW,221,3.5,5.8,74,0.00,,FEW,0.00,WeatherDisplay:10.37,2013-07-10 16:17:00,
2013-07-10 11:22:00,86.9,77.6,29.09,SE,142,4.5,9.2,74,0.00,,FEW,0.00,WeatherDisplay:10.37,2013-07-10 16:22:00,
2013-07-10 11:27:00,87.0,77.7,29.09,South,173,5.1,8.1,74,0.00,,FEW,0.00,WeatherDisplay:10.37,2013-07-10 16:27:00,
2013-07-10 11:32:00,86.8,77.1,29.09,East,97,6.2,9.2,73,0.00,,FEW,0.00,WeatherDisplay:10.37,2013-07-10 16:32:00,
2013-07-10 11:37:00,86.7,77.0,29.09,SE,133,6.8,8.1,73,0.00,,FEW,0.00,WeatherDisplay:10.37,2013-07-10 16:37:00,
2013-07-10 11:42:00,86.6,77.3,29.09,SE,128,5.1,6.9,74,0.00,,FEW,0.00,WeatherDisplay:10.37,2013-07-10 16:42:00,
2013-07-10 11:47:00,87.0,77.3,29.09,SSW,201,5.0,8.1,73,0.00,,FEW,0.00,WeatherDisplay:10.37,2013-07-10 16:47:00,
2013-07-10 11:52:00,87.7,77.5,29.09,South,180,8.0,8.1,72,0.00,,FEW,0.00,WeatherDisplay:10.37,2013-07-10 16:52:00,
2013-07-10 11:57:00,87.3,77.6,29.09,South,175,5.6,8.1,73,0.00,,FEW,0.00,WeatherDisplay:10.37,2013-07-10 16:57:00,
2013-07-10 12:02:00,86.8,77.1,29.09,SE,145,9.4,11.5,73,0.00,,FEW,0.00,WeatherDisplay:10.37,2013-07-10 17:02:00,
2013-07-10 12:07:00,86.9,77.2,29.09,SE,125,5.6,5.8,73,0.00,,FEW,0.00,WeatherDisplay:10.37,2013-07-10 17:07:00,
2013-07-10 12:12:00,87.2,77.1,29.09,South,173,7.9,9.2,72,0.00,,FEW,0.00,WeatherDisplay:10.37,2013-07-10 17:12:00,
2013-07-10 12:17:00,86.9,77.2,29.09,SE,124,6.9,9.2,73,0.00,,FEW,0.00,WeatherDisplay:10.37,2013-07-10 17:17:00,
2013-07-10 12:22:00,87.2,77.5,29.09,SE,140,5.0,7.4,73,0.00,,FEW,0.00,WeatherDisplay:10.37,2013-07-10 17:22:00,
2013-07-10 12:27:00,86.8,77.1,29.09,SSE,151,7.0,10.4,73,0.00,,FEW,0.00,WeatherDisplay:10.37,2013-07-10 17:27:00,
2013-07-10 12:32:00,87.2,77.5,29.09,SE,130,6.0,8.4,73,0.00,,FEW,0.00,WeatherDisplay:10.37,2013-07-10 17:32:00,
2013-07-10 12:37:00,87.0,76.9,29.08,SSE,149,4.3,6.3,72,0.00,,FEW,0.00,WeatherDisplay:10.37,2013-07-10 17:37:00,
2013-07-10 12:42:00,87.3,77.2,29.08,West,259,2.8,5.8,72,0.00,,FEW,0.00,WeatherDisplay:10.37,2013-07-10 17:42:00,
2013-07-10 12:47:00,87.7,77.5,29.08,SE,130,6.7,10.5,72,0.00,,FEW,0.00,WeatherDisplay:10.37,2013-07-10 17:47:00,
2013-07-10 12:52:00,87.5,76.9,29.08,East,101,5.2,10.5,71,0.00,,FEW,0.00,WeatherDisplay:10.37,2013-07-10 17:52:00,
2013-07-10 12:57:00,87.7,77.5,29.08,SE,138,7.0,10.5,72,0.00,,FEW,0.00,WeatherDisplay:10.37,2013-07-10 17:57:00,
2013-07-10 13:02:00,87.3,76.7,29.08,ESE,108,10.0,12.7,71,0.00,,FEW,0.00,WeatherDisplay:10.37,2013-07-10 18:02:00,
2013-07-10 13:07:00,87.0,76.9,29.07,SE,132,8.4,12.7,72,0.00,,FEW,0.00,WeatherDisplay:10.37,2013-07-10 18:07:00,
2013-07-10 13:12:00,87.0,77.3,29.07,East,93,7.6,9.2,73,0.00,,FEW,0.00,WeatherDisplay:10.37,2013-07-10 18:12:00,
2013-07-10 13:17:00,87.3,77.2,29.07,ESE,103,5.0,9.5,72,0.00,,FEW,0.00,WeatherDisplay:10.37,2013-07-10 18:17:00,
2013-07-10 13:22:00,87.4,77.3,29.07,ESE,111,8.9,13.8,72,0.00,,FEW,0.00,WeatherDisplay:10.37,2013-07-10 18:22:00,
2013-07-10 13:27:00,87.2,77.5,29.07,SE,144,6.2,9.2,73,0.00,,FEW,0.00,WeatherDisplay:10.37,2013-07-10 18:27:00,
2013-07-10 13:32:00,87.8,76.8,29.07,South,189,5.4,8.1,70,0.00,,FEW,0.00,WeatherDisplay:10.37,2013-07-10 18:32:00,
2013-07-10 13:37:00,88.0,77.4,29.07,SSE,147,7.8,9.2,71,0.00,,FEW,0.00,WeatherDisplay:10.37,2013-07-10 18:37:00,
2013-07-10 13:42:00,87.8,77.2,29.06,SE,143,7.5,12.7,71,0.00,,FEW,0.00,WeatherDisplay:10.37,2013-07-10 18:42:00,
2013-07-10 13:47:00,87.9,77.3,29.07,SSE,156,8.2,17.3,71,0.00,,FEW,0.00,WeatherDisplay:10.37,2013-07-10 18:47:00,
2013-07-10 13:52:00,87.3,77.6,29.07,SE,133,8.0,15.0,73,0.00,,FEW,0.00,WeatherDisplay:10.37,2013-07-10 18:52:00,
2013-07-10 13:57:00,87.0,77.3,29.06,NW,311,15.4,15.4,73,0.00,,FEW,0.00,WeatherDisplay:10.37,2013-07-10 18:57:00,
2013-07-10 14:02:00,87.4,77.7,29.07,SE,130,7.6,9.5,73,0.00,,FEW,0.00,WeatherDisplay:10.37,2013-07-10 19:02:00,
2013-07-10 14:07:00,87.5,76.9,29.06,SSE,161,8.4,11.5,71,0.00,,FEW,0.00,WeatherDisplay:10.37,2013-07-10 19:07:00,
2013-07-10 14:12:00,87.5,77.4,29.06,SE,125,7.1,10.5,72,0.00,,FEW,0.00,WeatherDisplay:10.37,2013-07-10 19:12:00,
2013-07-10 14:17:00,87.5,76.5,29.06,East,100,8.2,14.7,70,0.00,,FEW,0.00,WeatherDisplay:10.37,2013-07-10 19:17:00,
2013-07-10 14:22:00,87.9,77.3,29.06,SE,126,5.5,10.4,71,0.00,,FEW,0.00,WeatherDisplay:10.37,2013-07-10 19:22:00,
2013-07-10 14:27:00,88.2,77.2,29.06,ESE,123,8.5,10.4,70,0.00,,FEW,0.00,WeatherDisplay:10.37,2013-07-10 19:27:00,
2013-07-10 14:32:00,87.8,76.4,29.06,ESE,111,7.1,10.4,69,0.00,,FEW,0.00,WeatherDisplay:10.37,2013-07-10 19:32:00,
2013-07-10 14:37:00,87.7,76.3,29.06,SSE,148,7.8,11.5,69,0.00,,FEW,0.00,WeatherDisplay:10.37,2013-07-10 19:37:00,
2013-07-10 14:42:00,87.5,76.1,29.06,ESE,116,7.2,10.4,69,0.00,,FEW,0.00,WeatherDisplay:10.37,2013-07-10 19:42:00,
2013-07-10 14:47:00,87.6,76.2,29.06,South,180,7.5,12.6,69,0.00,,FEW,0.00,WeatherDisplay:10.37,2013-07-10 19:47:00,
2013-07-10 14:52:00,87.7,75.8,29.06,ESE,112,5.6,9.2,68,0.00,,FEW,0.00,WeatherDisplay:10.37,2013-07-10 19:52:00,
2013-07-10 14:57:00,87.6,75.7,29.06,SE,124,8.0,13.8,68,0.00,,FEW,0.00,WeatherDisplay:10.37,2013-07-10 19:57:00,
2013-07-10 15:02:00,87.4,76.0,29.05,SE,133,4.9,13.8,69,0.00,,FEW,0.00,WeatherDisplay:10.37,2013-07-10 20:02:00,
2013-07-10 15:07:00,87.2,76.6,29.05,ESE,121,6.7,12.7,71,0.00,,FEW,0.00,WeatherDisplay:10.37,2013-07-10 20:07:00,
2013-07-10 15:12:00,87.4,76.8,29.06,SSW,199,7.6,9.2,71,0.00,,FEW,0.00,WeatherDisplay:10.37,2013-07-10 20:12:00,
2013-07-10 15:17:00,87.2,76.2,29.05,SSE,161,7.9,12.7,70,0.00,,FEW,0.00,WeatherDisplay:10.37,2013-07-10 20:17:00,
2013-07-10 15:22:00,87.4,75.1,29.05,SSE,151,7.3,10.4,67,0.00,,FEW,0.00,WeatherDisplay:10.37,2013-07-10 20:22:00,
2013-07-10 15:27:00,87.9,74.7,29.05,SE,139,6.7,9.5,65,0.00,,FEW,0.00,WeatherDisplay:10.37,2013-07-10 20:27:00,
2013-07-10 15:32:00,88.1,75.3,29.05,SSE,147,9.0,10.5,66,0.00,,FEW,0.00,WeatherDisplay:10.37,2013-07-10 20:32:00,
2013-07-10 15:37:00,87.6,75.3,29.04,WSW,254,10.8,15.0,67,0.00,,FEW,0.00,WeatherDisplay:10.37,2013-07-10 20:37:00,
2013-07-10 15:42:00,87.4,76.0,29.04,SSE,151,9.0,11.5,69,0.00,,FEW,0.00,WeatherDisplay:10.37,2013-07-10 20:42:00,
2013-07-10 15:47:00,87.2,76.2,29.04,SE,129,7.6,10.4,70,0.00,,FEW,0.00,WeatherDisplay:10.37,2013-07-10 20:47:00,
2013-07-10 15:52:00,87.3,75.4,29.03,ESE,111,11.8,20.7,68,0.00,,FEW,0.00,WeatherDisplay:10.37,2013-07-10 20:52:00,
2013-07-10 15:57:00,87.5,76.1,29.04,SSE,151,7.5,8.4,69,0.00,,FEW,0.00,WeatherDisplay:10.37,2013-07-10 20:57:00,
2013-07-10 16:02:00,87.5,76.5,29.03,ESE,122,6.5,8.4,70,0.00,,FEW,0.00,WeatherDisplay:10.37,2013-07-10 21:02:00,
2013-07-10 16:07:00,87.3,76.3,29.03,South,183,8.3,13.8,70,0.00,,FEW,0.00,WeatherDisplay:10.37,2013-07-10 21:07:00,
2013-07-10 16:12:00,86.9,75.5,29.03,ESE,120,9.9,12.7,69,0.00,,FEW,0.00,WeatherDisplay:10.37,2013-07-10 21:12:00,
2013-07-10 16:17:00,87.1,76.1,29.03,ESE,108,7.1,9.2,70,0.00,,FEW,0.00,WeatherDisplay:10.37,2013-07-10 21:17:00,
2013-07-10 16:22:00,87.2,76.2,29.03,East,94,6.3,10.4,70,0.00,,FEW,0.00,WeatherDisplay:10.37,2013-07-10 21:22:00,
2013-07-10 16:27:00,87.3,76.3,29.03,SSE,152,6.1,8.1,70,0.00,,FEW,0.00,WeatherDisplay:10.37,2013-07-10 21:27:00,
2013-07-10 16:32:00,87.5,76.9,29.03,SE,126,7.5,10.5,71,0.00,,FEW,0.00,WeatherDisplay:10.37,2013-07-10 21:32:00,
2013-07-10 16:37:00,87.3,76.7,29.03,ESE,106,5.6,9.2,71,0.00,,FEW,0.00,WeatherDisplay:10.37,2013-07-10 21:37:00,
2013-07-10 16:42:00,86.7,76.6,29.02,South,169,4.9,10.4,72,0.00,,FEW,0.00,WeatherDisplay:10.37,2013-07-10 21:42:00,
2013-07-10 16:47:00,86.4,76.7,29.02,SSE,152,5.8,11.5,73,0.00,,FEW,0.00,WeatherDisplay:10.37,2013-07-10 21:47:00,
2013-07-10 16:52:00,86.5,76.4,29.02,SE,143,7.8,12.7,72,0.00,,FEW,0.00,WeatherDisplay:10.37,2013-07-10 21:52:00,
2013-07-10 16:57:00,86.5,76.4,29.02,WSW,239,9.2,10.4,72,0.00,,FEW,0.00,WeatherDisplay:10.37,2013-07-10 21:57:00,
2013-07-10 17:02:00,86.6,76.5,29.02,ESE,114,6.2,12.7,72,0.00,,FEW,0.00,WeatherDisplay:10.37,2013-07-10 22:02:00,
2013-07-10 17:07:00,86.6,76.5,29.02,SSW,197,5.2,11.5,72,0.00,,FEW,0.00,WeatherDisplay:10.37,2013-07-10 22:07:00,
2013-07-10 17:12:00,86.4,76.3,29.01,ESE,116,5.2,10.4,72,0.00,,FEW,0.00,WeatherDisplay:10.37,2013-07-10 22:12:00,
2013-07-10 17:17:00,86.5,76.4,29.01,South,174,9.7,11.5,72,0.00,,FEW,0.00,WeatherDisplay:10.37,2013-07-10 22:17:00,
2013-07-10 17:22:00,86.4,76.3,29.01,SW,220,8.9,10.4,72,0.00,,FEW,0.00,WeatherDisplay:10.37,2013-07-10 22:22:00,
2013-07-10 17:27:00,86.2,76.5,29.00,SSE,157,7.1,13.7,73,0.00,,FEW,0.00,WeatherDisplay:10.37,2013-07-10 22:27:00,
2013-07-10 17:32:00,85.7,76.0,29.00,SE,140,10.1,11.5,73,0.00,,FEW,0.00,WeatherDisplay:10.37,2013-07-10 22:32:00,
2013-07-10 17:37:00,85.6,76.4,29.00,ESE,119,7.5,9.2,74,0.00,,FEW,0.00,WeatherDisplay:10.37,2013-07-10 22:37:00,
2013-07-10 17:42:00,85.4,76.6,28.99,SE,144,7.5,8.4,75,0.00,,FEW,0.00,WeatherDisplay:10.37,2013-07-10 22:42:00,
2013-07-10 17:47:00,85.3,76.9,28.99,SSE,155,4.9,5.8,76,0.00,,FEW,0.00,WeatherDisplay:10.37,2013-07-10 22:47:00,
2013-07-10 17:52:00,85.3,76.5,28.99,SSE,162,9.6,11.5,75,0.00,,FEW,0.00,WeatherDisplay:10.37,2013-07-10 22:52:00,
2013-07-10 17:57:00,85.1,76.7,28.99,SE,138,7.4,15.0,76,0.00,,FEW,0.00,WeatherDisplay:10.37,2013-07-10 22:57:00,
2013-07-10 18:02:00,85.2,76.8,28.99,SE,125,7.0,11.5,76,0.00,,FEW,0.00,WeatherDisplay:10.37,2013-07-10 23:02:00,
2013-07-10 18:07:00,85.3,76.9,28.99,SSE,167,6.5,11.5,76,0.00,,FEW,0.00,WeatherDisplay:10.37,2013-07-10 23:07:00,
2013-07-10 18:12:00,85.5,77.1,28.98,SE,137,6.0,9.5,76,0.00,,FEW,0.00,WeatherDisplay:10.37,2013-07-10 23:12:00,
2013-07-10 18:17:00,85.5,77.1,28.98,SE,142,5.9,11.5,76,0.00,,FEW,0.00,WeatherDisplay:10.37,2013-07-10 23:17:00,
2013-07-10 18:22:00,85.3,76.5,28.98,SE,141,8.5,11.5,75,0.00,,FEW,0.00,WeatherDisplay:10.37,2013-07-10 23:22:00,
2013-07-10 18:27:00,85.4,77.0,28.98,SE,140,4.6,9.2,76,0.00,,FEW,0.00,WeatherDisplay:10.37,2013-07-10 23:27:00,
2013-07-10 18:32:00,85.2,76.8,28.98,SE,137,6.5,12.6,76,0.00,,FEW,0.00,WeatherDisplay:10.37,2013-07-10 23:32:00,
2013-07-10 18:37:00,84.6,75.4,28.98,SE,140,9.3,12.7,74,0.00,,FEW,0.00,WeatherDisplay:10.37,2013-07-10 23:37:00,
2013-07-10 18:42:00,84.3,75.9,28.98,ESE,102,9.2,13.8,76,0.00,,FEW,0.00,WeatherDisplay:10.37,2013-07-10 23:42:00,
2013-07-10 18:47:00,84.3,76.7,28.98,SE,140,4.5,8.1,78,0.00,,FEW,0.00,WeatherDisplay:10.37,2013-07-10 23:47:00,
2013-07-10 18:52:00,84.4,76.4,28.98,ESE,104,7.7,7.7,77,0.00,,FEW,0.00,WeatherDisplay:10.37,2013-07-10 23:52:00,
2013-07-10 18:57:00,84.2,76.2,28.98,ESE,123,6.2,10.4,77,0.00,,FEW,0.00,WeatherDisplay:10.37,2013-07-10 23:57:00,
2013-07-10 19:02:00,84.0,76.0,28.98,SE,132,6.2,10.4,77,0.00,,FEW,0.00,WeatherDisplay:10.37,2013-07-11 00:02:00,
2013-07-10 19:07:00,84.1,76.1,28.98,SE,132,8.1,9.2,77,0.00,,FEW,0.00,WeatherDisplay:10.37,2013-07-11 00:07:00,
2013-07-10 19:12:00,84.0,76.4,28.98,SE,133,6.0,8.4,78,0.00,,FEW,0.00,WeatherDisplay:10.37,2013-07-11 00:12:00,
2013-07-10 19:17:00,83.7,75.7,28.98,SSE,149,4.0,11.5,77,0.00,,FEW,0.00,WeatherDisplay:10.37,2013-07-11 00:17:00,
2013-07-10 19:22:00,83.5,75.1,28.98,SE,138,4.6,9.2,76,0.00,,FEW,0.00,WeatherDisplay:10.37,2013-07-11 00:22:00,
2013-07-10 19:27:00,83.4,75.4,28.98,SSE,148,4.8,8.1,77,0.00,,FEW,0.00,WeatherDisplay:10.37,2013-07-11 00:27:00,
2013-07-10 19:32:00,83.2,75.6,28.98,SE,135,7.1,9.2,78,0.00,,FEW,0.00,WeatherDisplay:10.37,2013-07-11 00:32:00,
2013-07-10 19:37:00,83.0,75.8,28.98,ESE,106,3.1,5.8,79,0.00,,FEW,0.00,WeatherDisplay:10.37,2013-07-11 00:37:00,
2013-07-10 19:42:00,82.8,75.6,28.98,ESE,106,3.8,6.9,79,0.00,,FEW,0.00,WeatherDisplay:10.37,2013-07-11 00:42:00,
2013-07-10 19:47:00,82.7,75.9,28.98,ESE,106,6.8,8.1,80,0.00,,FEW,0.00,WeatherDisplay:10.37,2013-07-11 00:47:00,
2013-07-10 19:52:00,82.6,76.2,28.98,SE,126,5.9,10.4,81,0.00,,FEW,0.00,WeatherDisplay:10.37,2013-07-11 00:52:00,
2013-07-10 19:57:00,82.3,75.9,28.98,East,99,4.6,6.3,81,0.00,,FEW,0.00,WeatherDisplay:10.37,2013-07-11 00:57:00,
2013-07-10 20:02:00,82.2,76.2,28.98,SE,139,6.0,8.1,82,0.00,,FEW,0.00,WeatherDisplay:10.37,2013-07-11 01:02:00,
2013-07-10 20:07:00,82.1,76.1,28.98,East,98,6.6,9.2,82,0.00,,FEW,0.00,WeatherDisplay:10.37,2013-07-11 01:07:00,
2013-07-10 20:12:00,82.1,76.1,28.98,ESE,104,4.9,6.9,82,0.00,,FEW,0.00,WeatherDisplay:10.37,2013-07-11 01:12:00,
2013-07-10 20:17:00,82.0,76.3,28.98,SE,141,4.1,8.1,83,0.00,,FEW,0.00,WeatherDisplay:10.37,2013-07-11 01:17:00,
2013-07-10 20:22:00,81.9,76.2,28.98,SE,133,0.9,5.8,83,0.00,,FEW,0.00,WeatherDisplay:10.37,2013-07-11 01:22:00,
2013-07-10 20:27:00,81.7,75.7,28.98,SE,139,2.7,5.8,82,0.00,,FEW,0.00,WeatherDisplay:10.37,2013-07-11 01:27:00,
2013-07-10 20:32:00,81.7,75.7,28.98,SE,130,1.1,5.8,82,0.00,,FEW,0.00,WeatherDisplay:10.37,2013-07-11 01:32:00,
2013-07-10 20:37:00,81.6,75.2,28.98,ESE,121,4.6,8.1,81,0.00,,FEW,0.00,WeatherDisplay:10.37,2013-07-11 01:37:00,
2013-07-10 20:42:00,81.7,75.3,28.99,SSW,197,2.7,4.6,81,0.00,,FEW,0.00,WeatherDisplay:10.37,2013-07-11 01:42:00,
2013-07-10 20:47:00,81.6,75.6,28.99,South,178,3.6,5.8,82,0.00,,FEW,0.00,WeatherDisplay:10.37,2013-07-11 01:47:00,
2013-07-10 20:52:00,81.6,75.6,28.99,SE,133,3.8,5.8,82,0.00,,FEW,0.00,WeatherDisplay:10.37,2013-07-11 01:52:00,
2013-07-10 20:57:00,81.5,75.5,28.99,ESE,108,8.6,11.5,82,0.00,,FEW,0.00,WeatherDisplay:10.37,2013-07-11 01:57:00,
2013-07-10 21:02:00,81.5,75.8,28.99,SSE,148,3.9,6.9,83,0.00,,FEW,0.00,WeatherDisplay:10.37,2013-07-11 02:02:00,
2013-07-10 21:07:00,81.4,75.7,28.99,SE,124,4.2,6.9,83,0.00,,FEW,0.00,WeatherDisplay:10.37,2013-07-11 02:07:00,
2013-07-10 21:12:00,81.4,75.7,28.99,SE,130,5.2,8.1,83,0.00,,FEW,0.00,WeatherDisplay:10.37,2013-07-11 02:12:00,
2013-07-10 21:17:00,81.3,76.0,28.99,SE,142,6.8,9.5,84,0.00,,FEW,0.00,WeatherDisplay:10.37,2013-07-11 02:17:00,
2013-07-10 21:22:00,81.3,76.0,28.99,ESE,121,4.8,8.1,84,0.00,,FEW,0.00,WeatherDisplay:10.37,2013-07-11 02:22:00,
2013-07-10 21:27:00,81.2,75.5,28.99,SSE,165,5.0,9.2,83,0.00,,FEW,0.00,WeatherDisplay:10.37,2013-07-11 02:27:00,
2013-07-10 21:32:00,81.2,75.2,28.99,SW,231,8.3,10.4,82,0.00,,FEW,0.00,WeatherDisplay:10.37,2013-07-11 02:32:00,
2013-07-10 21:37:00,81.2,75.2,29.00,ESE,104,4.8,5.8,82,0.00,,FEW,0.00,WeatherDisplay:10.37,2013-07-11 02:37:00,
2013-07-10 21:42:00,81.2,75.5,29.00,ESE,119,5.5,6.9,83,0.00,,FEW,0.00,WeatherDisplay:10.37,2013-07-11 02:42:00,
2013-07-10 21:47:00,81.3,76.0,29.00,SSE,157,5.2,8.1,84,0.00,,FEW,0.00,WeatherDisplay:10.37,2013-07-11 02:47:00,
2013-07-10 21:52:00,81.3,76.0,29.00,SSE,154,4.2,6.9,84,0.00,,FEW,0.00,WeatherDisplay:10.37,2013-07-11 02:52:00,
2013-07-10 21:57:00,81.3,76.0,29.00,SE,128,5.0,8.1,84,0.00,,FEW,0.00,WeatherDisplay:10.37,2013-07-11 02:57:00,
2013-07-10 22:02:00,81.3,76.0,29.00,SE,134,7.2,9.2,84,0.00,,FEW,0.00,WeatherDisplay:10.37,2013-07-11 03:02:00,
2013-07-10 22:07:00,81.3,76.0,29.00,East,95,6.6,11.5,84,0.00,,FEW,0.00,WeatherDisplay:10.37,2013-07-11 03:07:00,
2013-07-10 22:12:00,81.3,76.0,29.00,SSE,150,5.1,6.9,84,0.00,,FEW,0.00,WeatherDisplay:10.37,2013-07-11 03:12:00,
2013-07-10 22:17:00,81.2,75.9,29.00,South,178,5.6,6.9,84,0.00,,FEW,0.00,WeatherDisplay:10.37,2013-07-11 03:17:00,
2013-07-10 22:22:00,81.2,76.3,29.01,SE,144,5.3,6.9,85,0.00,,FEW,0.00,WeatherDisplay:10.37,2013-07-11 03:22:00,
2013-07-10 22:27:00,81.2,76.3,29.01,SSE,162,6.5,9.2,85,0.00,,FEW,0.00,WeatherDisplay:10.37,2013-07-11 03:27:00,
2013-07-10 22:32:00,81.2,76.3,29.01,SSE,163,4.5,6.9,85,0.00,,FEW,0.00,WeatherDisplay:10.37,2013-07-11 03:32:00,
2013-07-10 22:37:00,81.1,76.2,29.01,South,183,5.3,8.1,85,0.00,,FEW,0.00,WeatherDisplay:10.37,2013-07-11 03:37:00,
2013-07-10 22:42:00,81.1,76.2,29.01,ESE,119,4.4,5.8,85,0.00,,FEW,0.00,WeatherDisplay:10.37,2013-07-11 03:42:00,
2013-07-10 22:47:00,81.0,76.1,29.01,SSE,164,8.7,9.2,85,0.00,,FEW,0.00,WeatherDisplay:10.37,2013-07-11 03:47:00,
2013-07-10 22:52:00,81.0,75.7,29.01,SSE,148,4.6,8.1,84,0.00,,FEW,0.00,WeatherDisplay:10.37,2013-07-11 03:52:00,
2013-07-10 22:57:00,81.1,75.8,29.02,SE,132,6.8,9.2,84,0.00,,FEW,0.00,WeatherDisplay:10.37,2013-07-11 03:57:00,
2013-07-10 23:01:00,81.1,75.8,29.02,SSE,152,4.6,10.4,84,0.00,,FEW,0.00,WeatherDisplay:10.37,2013-07-11 04:01:00,
2013-07-10 23:06:00,81.1,76.2,29.02,SE,140,5.7,11.5,85,0.00,,FEW,0.00,WeatherDisplay:10.37,2013-07-11 04:06:00,
2013-07-10 23:11:00,81.1,76.2,29.02,South,173,7.6,11.5,85,0.00,,FEW,0.00,WeatherDisplay:10.37,2013-07-11 04:11:00,
2013-07-10 23:16:00,81.1,76.2,29.02,ESE,106,6.4,10.4,85,0.00,,FEW,0.00,WeatherDisplay:10.37,2013-07-11 04:16:00,
2013-07-10 23:21:00,81.1,76.2,29.02,SSE,163,4.1,6.3,85,0.00,,FEW,0.00,WeatherDisplay:10.37,2013-07-11 04:21:00,
2013-07-10 23:26:00,81.0,76.1,29.02,SW,235,5.9,10.4,85,0.00,,FEW,0.00,WeatherDisplay:10.37,2013-07-11 04:26:00,
2013-07-10 23:31:00,81.0,76.1,29.02,SW,234,4.2,6.9,85,0.00,,FEW,0.00,WeatherDisplay:10.37,2013-07-11 04:31:00,
2013-07-10 23:36:00,81.0,76.4,29.02,South,180,5.3,6.9,86,0.00,,FEW,0.00,WeatherDisplay:10.37,2013-07-11 04:36:00,
2013-07-10 23:41:00,81.0,76.4,29.02,SE,135,3.3,9.2,86,0.00,,FEW,0.00,WeatherDisplay:10.37,2013-07-11 04:41:00,
2013-07-10 23:46:00,81.1,76.5,29.02,WSW,244,6.6,9.5,86,0.00,,FEW,0.00,WeatherDisplay:10.37,2013-07-11 04:46:00,
2013-07-10 23:51:00,81.0,76.4,29.02,SSE,161,5.5,6.9,86,0.00,,FEW,0.00,WeatherDisplay:10.37,2013-07-11 04:51:00,
2013-07-10 23:56:00,81.0,76.1,29.02,South,182,6.0,11.5,85,0.00,,FEW,0.00,WeatherDisplay:10.37,2013-07-11 04:56:00,